createdAt,value
2019-04-07T00:00:34.037Z,0
2019-04-07T00:01:35.563Z,0
2019-04-07T00:02:37.072Z,0
2019-04-07T00:03:38.976Z,0
2019-04-07T00:04:40.042Z,0
2019-04-07T00:05:41.671Z,0
2019-04-07T00:06:43.033Z,0
2019-04-07T00:07:44.752Z,0
2019-04-07T00:08:46.826Z,0
2019-04-07T00:09:48.253Z,0
2019-04-07T00:10:49.770Z,0
2019-04-07T00:11:51.911Z,0
2019-04-07T00:12:52.762Z,0
2019-04-07T00:13:54.295Z,0
2019-04-07T00:14:56.219Z,0
2019-04-07T00:15:57.436Z,0
2019-04-07T00:16:58.796Z,0
2019-04-07T00:18:00.540Z,0
2019-04-07T00:19:02.019Z,0
2019-04-07T00:20:04.094Z,0
2019-04-07T00:21:05.003Z,0
2019-04-07T00:22:06.547Z,0
2019-04-07T00:23:08.140Z,0
2019-04-07T00:24:10.226Z,0
2019-04-07T00:25:11.089Z,0
2019-04-07T00:26:12.754Z,0
2019-04-07T00:27:14.423Z,0
2019-04-07T00:28:16.165Z,0
2019-04-07T00:29:17.392Z,0
2019-04-07T00:30:19.580Z,0
2019-04-07T00:31:20.498Z,0
2019-04-07T00:32:22.175Z,0
2019-04-07T00:33:23.292Z,0
2019-04-07T00:34:24.900Z,0
2019-04-07T00:35:30.513Z,0
2019-04-07T00:36:27.915Z,0
2019-04-07T00:37:29.482Z,0
2019-04-07T00:38:30.743Z,0
2019-04-07T00:39:32.311Z,0
2019-04-07T00:40:33.837Z,0
2019-04-07T00:41:35.371Z,0
2019-04-07T00:42:36.794Z,0
2019-04-07T00:43:38.282Z,0
2019-04-07T00:44:39.956Z,0
2019-04-07T00:45:41.571Z,0
2019-04-07T00:46:43.239Z,0
2019-04-07T00:47:44.894Z,0
2019-04-07T00:48:45.768Z,0
2019-04-07T00:49:47.563Z,0
2019-04-07T00:50:48.787Z,0
2019-04-07T00:51:51.269Z,0
2019-04-07T00:52:52.542Z,0
2019-04-07T00:53:53.247Z,0
2019-04-07T00:54:54.787Z,0
2019-04-07T00:55:56.353Z,0
2019-04-07T00:56:57.988Z,0
2019-04-07T00:57:59.590Z,0
2019-04-07T00:59:01.148Z,0
2019-04-07T01:00:02.896Z,0
2019-04-07T01:01:04.297Z,0
2019-04-07T01:02:05.860Z,0
2019-04-07T01:03:07.295Z,0
2019-04-07T01:04:08.924Z,0
2019-04-07T01:05:10.509Z,0
2019-04-07T01:06:11.771Z,0
2019-04-07T01:07:13.273Z,0
2019-04-07T01:08:15.454Z,0
2019-04-07T01:09:16.541Z,0
2019-04-07T01:10:18.308Z,0
2019-04-07T01:11:19.220Z,0
2019-04-07T01:12:21.355Z,0
2019-04-07T01:13:22.267Z,0
2019-04-07T01:14:23.802Z,0
2019-04-07T01:15:25.444Z,0
2019-04-07T01:16:27.385Z,0
2019-04-07T01:17:29.083Z,0
2019-04-07T01:18:30.532Z,0
2019-04-07T01:19:31.574Z,0
2019-04-07T01:20:33.098Z,0
2019-04-07T01:21:34.645Z,0
2019-04-07T01:22:36.318Z,0
2019-04-07T01:23:37.954Z,0
2019-04-07T01:24:39.462Z,0
2019-04-07T01:25:41.123Z,0
2019-04-07T01:26:42.059Z,0
2019-04-07T01:27:43.935Z,0
2019-04-07T01:28:44.942Z,0
2019-04-07T01:29:46.428Z,0
2019-04-07T01:30:48.049Z,0
2019-04-07T01:31:49.409Z,0
2019-04-07T01:32:50.969Z,0
2019-04-07T01:33:52.275Z,0
2019-04-07T01:34:53.884Z,0
2019-04-07T01:35:55.399Z,0
2019-04-07T01:36:56.905Z,0
2019-04-07T01:37:58.378Z,0
2019-04-07T01:39:00.046Z,0
2019-04-07T01:40:01.527Z,0
2019-04-07T01:41:03.117Z,0
2019-04-07T01:42:04.949Z,0
2019-04-07T01:43:06.470Z,0
2019-04-07T01:44:07.934Z,0
2019-04-07T01:45:09.134Z,0
2019-04-07T01:46:11.006Z,0
2019-04-07T01:47:12.333Z,0
2019-04-07T01:48:13.908Z,0
2019-04-07T01:49:15.116Z,0
2019-04-07T01:50:17.354Z,0
2019-04-07T01:51:18.426Z,0
2019-04-07T01:52:21.084Z,0
2019-04-07T01:53:21.363Z,0
2019-04-07T01:54:23.007Z,0
2019-04-07T01:55:24.566Z,0
2019-04-07T01:56:26.282Z,0
2019-04-07T01:57:27.321Z,0
2019-04-07T01:58:29.093Z,0
2019-04-07T01:59:31.026Z,0
2019-04-07T02:00:32.570Z,0
2019-04-07T02:01:33.821Z,0
2019-04-07T02:02:35.541Z,0
2019-04-07T02:03:37.362Z,0
2019-04-07T02:04:38.791Z,0
2019-04-07T02:05:39.669Z,0
2019-04-07T02:06:41.320Z,0
2019-04-07T02:07:43.577Z,0
2019-04-07T02:08:44.335Z,0
2019-04-07T02:09:45.839Z,0
2019-04-07T02:10:47.318Z,0
2019-04-07T02:11:49.397Z,0
2019-04-07T02:12:50.692Z,0
2019-04-07T02:13:52.474Z,0
2019-04-07T02:14:54.186Z,0
2019-04-07T02:15:56.008Z,0
2019-04-07T02:16:57.697Z,0
2019-04-07T02:17:58.369Z,0
2019-04-07T02:18:59.999Z,0
2019-04-07T02:20:01.636Z,0
2019-04-07T02:21:03.437Z,0
2019-04-07T02:22:04.793Z,0
2019-04-07T02:23:06.573Z,0
2019-04-07T02:24:08.180Z,0
2019-04-07T02:25:09.815Z,0
2019-04-07T02:26:11.442Z,0
2019-04-07T02:27:13.062Z,0
2019-04-07T02:28:14.519Z,0
2019-04-07T02:29:16.038Z,0
2019-04-07T02:30:17.652Z,0
2019-04-07T02:31:19.285Z,0
2019-04-07T02:32:21.446Z,0
2019-04-07T02:33:22.597Z,0
2019-04-07T02:34:23.766Z,0
2019-04-07T02:35:25.801Z,0
2019-04-07T02:36:30.513Z,0
2019-04-07T02:37:28.489Z,0
2019-04-07T02:38:29.998Z,0
2019-04-07T02:39:32.697Z,0
2019-04-07T02:40:34.193Z,0
2019-04-07T02:41:34.690Z,0
2019-04-07T02:42:36.570Z,0
2019-04-07T02:43:38.388Z,0
2019-04-07T02:44:39.366Z,0
2019-04-07T02:45:41.194Z,0
2019-04-07T02:46:42.490Z,0
2019-04-07T02:47:44.565Z,0
2019-04-07T02:48:46.730Z,0
2019-04-07T02:49:47.501Z,0
2019-04-07T02:50:48.707Z,0
2019-04-07T02:51:50.273Z,0
2019-04-07T02:52:52.885Z,0
2019-04-07T02:53:53.259Z,0
2019-04-07T02:54:54.849Z,0
2019-04-07T02:55:56.834Z,0
2019-04-07T02:56:58.123Z,0
2019-04-07T02:57:59.677Z,0
2019-04-07T02:59:01.418Z,0
2019-04-07T03:00:02.743Z,0
2019-04-07T03:01:04.335Z,0
2019-04-07T03:02:05.973Z,0
2019-04-07T03:03:07.549Z,0
2019-04-07T03:04:09.495Z,0
2019-04-07T03:05:11.826Z,0
2019-04-07T03:06:17.153Z,0
2019-04-07T03:07:13.779Z,0
2019-04-07T03:08:15.576Z,0
2019-04-07T03:09:17.006Z,0
2019-04-07T03:10:18.719Z,0
2019-04-07T03:11:21.111Z,0
2019-04-07T03:12:21.610Z,0
2019-04-07T03:13:24.284Z,0
2019-04-07T03:14:25.003Z,0
2019-04-07T03:15:26.876Z,0
2019-04-07T03:16:28.049Z,0
2019-04-07T03:17:29.800Z,0
2019-04-07T03:18:31.671Z,0
2019-04-07T03:19:33.173Z,0
2019-04-07T03:20:34.725Z,0
2019-04-07T03:21:36.370Z,0
2019-04-07T03:22:38.464Z,0
2019-04-07T03:23:39.324Z,0
2019-04-07T03:24:40.932Z,0
2019-04-07T03:25:42.510Z,0
2019-04-07T03:26:44.486Z,0
2019-04-07T03:27:46.403Z,0
2019-04-07T03:28:47.479Z,0
2019-04-07T03:29:49.321Z,0
2019-04-07T03:30:51.841Z,0
2019-04-07T03:31:53.430Z,0
2019-04-07T03:32:54.464Z,0
2019-04-07T03:33:56.367Z,0
2019-04-07T03:34:58.037Z,0
2019-04-07T03:36:01.805Z,0
2019-04-07T03:37:19.363Z,0
2019-04-07T03:38:01.949Z,0
2019-04-07T03:39:03.389Z,0
2019-04-07T03:40:04.727Z,0
2019-04-07T03:41:05.915Z,0
2019-04-07T03:42:08.466Z,0
2019-04-07T03:43:09.360Z,0
2019-04-07T03:44:10.674Z,0
2019-04-07T03:45:12.146Z,0
2019-04-07T03:46:14.129Z,0
2019-04-07T03:47:16.174Z,0
2019-04-07T03:48:17.587Z,0
2019-04-07T03:49:18.762Z,0
2019-04-07T03:50:20.018Z,0
2019-04-07T03:51:22.390Z,0
2019-04-07T03:52:23.255Z,0
2019-04-07T03:53:24.875Z,0
2019-04-07T03:54:26.491Z,0
2019-04-07T03:55:28.274Z,0
2019-04-07T03:56:30.638Z,0
2019-04-07T03:57:32.363Z,0
2019-04-07T03:58:33.159Z,0
2019-04-07T03:59:35.300Z,0
2019-04-07T04:00:37.570Z,0
2019-04-07T04:01:39.381Z,0
2019-04-07T04:02:41.226Z,0
2019-04-07T04:03:42.769Z,0
2019-04-07T04:04:45.621Z,0
2019-04-07T04:05:47.707Z,0
2019-04-07T04:06:48.162Z,0
2019-04-07T04:07:49.985Z,0
2019-04-07T04:08:51.712Z,0
2019-04-07T04:09:53.665Z,0
2019-04-07T04:10:55.599Z,0
2019-04-07T04:11:56.937Z,0
2019-04-07T04:12:58.669Z,0
2019-04-07T04:14:01.532Z,0
2019-04-07T04:15:03.421Z,0
2019-04-07T04:16:03.780Z,0
2019-04-07T04:17:06.246Z,0
2019-04-07T04:18:06.788Z,0
2019-04-07T04:19:08.399Z,0
2019-04-07T04:20:10.568Z,0
2019-04-07T04:21:11.449Z,0
2019-04-07T04:22:14.041Z,0
2019-04-07T04:23:14.504Z,0
2019-04-07T04:24:16.628Z,0
2019-04-07T04:25:17.564Z,0
2019-04-07T04:26:19.205Z,0
2019-04-07T04:27:21.514Z,0
2019-04-07T04:28:22.308Z,0
2019-04-07T04:29:24.617Z,0
2019-04-07T04:30:25.715Z,0
2019-04-07T04:31:27.383Z,0
2019-04-07T04:32:28.782Z,0
2019-04-07T04:33:31.022Z,4
2019-04-07T04:34:32.855Z,4
2019-04-07T04:35:33.987Z,0
2019-04-07T04:36:35.985Z,4
2019-04-07T04:37:42.639Z,4
2019-04-07T04:38:38.437Z,4
2019-04-07T04:39:39.733Z,4
2019-04-07T04:40:42.735Z,4
2019-04-07T04:41:43.462Z,8
2019-04-07T04:42:44.969Z,8
2019-04-07T04:43:47.180Z,8
2019-04-07T04:44:48.150Z,8
2019-04-07T04:45:50.286Z,12
2019-04-07T04:46:51.385Z,12
2019-04-07T04:47:53.755Z,16
2019-04-07T04:48:55.431Z,20
2019-04-07T04:49:56.081Z,20
2019-04-07T04:50:58.044Z,24
2019-04-07T04:51:59.188Z,24
2019-04-07T04:53:00.713Z,28
2019-04-07T04:54:02.254Z,32
2019-04-07T04:55:04.025Z,36
2019-04-07T04:56:05.560Z,40
2019-04-07T04:57:08.029Z,48
2019-04-07T04:58:08.754Z,56
2019-04-07T04:59:11.443Z,60
2019-04-07T05:00:13.503Z,64
2019-04-07T05:01:14.040Z,72
2019-04-07T05:02:15.925Z,76
2019-04-07T05:03:18.011Z,80
2019-04-07T05:04:18.842Z,88
2019-04-07T05:05:21.140Z,92
2019-04-07T05:06:21.780Z,100
2019-04-07T05:07:24.412Z,104
2019-04-07T05:08:24.830Z,108
2019-04-07T05:09:39.213Z,120
2019-04-07T05:10:28.785Z,128
2019-04-07T05:11:30.366Z,132
2019-04-07T05:12:31.356Z,140
2019-04-07T05:13:33.016Z,148
2019-04-07T05:14:35.335Z,152
2019-04-07T05:15:36.739Z,156
2019-04-07T05:16:38.802Z,164
2019-04-07T05:17:40.242Z,172
2019-04-07T05:18:41.881Z,180
2019-04-07T05:19:43.454Z,184
2019-04-07T05:20:45.574Z,192
2019-04-07T05:21:47.197Z,200
2019-04-07T05:22:48.889Z,208
2019-04-07T05:23:51.352Z,216
2019-04-07T05:24:52.135Z,228
2019-04-07T05:25:53.700Z,240
2019-04-07T05:26:55.784Z,248
2019-04-07T05:27:57.048Z,260
2019-04-07T05:28:59.337Z,272
2019-04-07T05:30:00.176Z,280
2019-04-07T05:31:02.345Z,288
2019-04-07T05:32:03.306Z,296
2019-04-07T05:33:05.543Z,296
2019-04-07T05:34:06.578Z,304
2019-04-07T05:35:08.807Z,312
2019-04-07T05:36:10.385Z,316
2019-04-07T05:37:11.446Z,320
2019-04-07T05:38:12.752Z,328
2019-04-07T05:39:14.361Z,336
2019-04-07T05:40:16.597Z,344
2019-04-07T05:41:18.315Z,356
2019-04-07T05:42:20.000Z,360
2019-04-07T05:43:21.478Z,368
2019-04-07T05:44:23.182Z,380
2019-04-07T05:45:24.036Z,388
2019-04-07T05:46:27.992Z,396
2019-04-07T05:47:27.624Z,404
2019-04-07T05:48:29.151Z,412
2019-04-07T05:49:30.109Z,420
2019-04-07T05:50:31.849Z,432
2019-04-07T05:51:33.865Z,444
2019-04-07T05:52:39.053Z,460
2019-04-07T05:53:36.751Z,472
2019-04-07T05:54:38.267Z,484
2019-04-07T05:55:39.845Z,500
2019-04-07T05:56:41.397Z,512
2019-04-07T05:57:44.207Z,524
2019-04-07T05:58:45.080Z,528
2019-04-07T05:59:47.149Z,536
2019-04-07T06:00:48.920Z,544
2019-04-07T06:01:51.632Z,556
2019-04-07T06:02:51.635Z,564
2019-04-07T06:03:53.356Z,580
2019-04-07T06:04:54.489Z,592
2019-04-07T06:05:56.104Z,604
2019-04-07T06:06:58.109Z,616
2019-04-07T06:08:12.077Z,628
2019-04-07T06:09:01.340Z,640
2019-04-07T06:10:03.442Z,652
2019-04-07T06:11:05.013Z,656
2019-04-07T06:12:09.075Z,668
2019-04-07T06:13:10.809Z,680
2019-04-07T06:14:09.128Z,688
2019-04-07T06:15:10.828Z,692
2019-04-07T06:16:12.954Z,704
2019-04-07T06:17:13.825Z,712
2019-04-07T06:18:15.332Z,712
2019-04-07T06:19:17.026Z,720
2019-04-07T06:20:18.864Z,724
2019-04-07T06:21:19.961Z,728
2019-04-07T06:22:22.006Z,732
2019-04-07T06:23:24.805Z,732
2019-04-07T06:24:26.593Z,744
2019-04-07T06:25:27.222Z,752
2019-04-07T06:26:27.819Z,768
2019-04-07T06:27:29.796Z,780
2019-04-07T06:28:30.748Z,796
2019-04-07T06:29:32.297Z,812
2019-04-07T06:30:35.912Z,832
2019-04-07T06:31:35.568Z,856
2019-04-07T06:32:38.387Z,876
2019-04-07T06:33:39.313Z,892
2019-04-07T06:34:41.861Z,912
2019-04-07T06:35:44.488Z,928
2019-04-07T06:36:43.187Z,940
2019-04-07T06:37:45.387Z,952
2019-04-07T06:38:51.135Z,964
2019-04-07T06:39:50.796Z,968
2019-04-07T06:40:53.849Z,976
2019-04-07T06:41:52.427Z,988
2019-04-07T06:42:54.528Z,996
2019-04-07T06:44:08.288Z,1008
2019-04-07T06:44:59.797Z,1012
2019-04-07T06:45:59.247Z,1020
2019-04-07T06:47:02.743Z,1028
2019-04-07T06:48:07.005Z,1036
2019-04-07T06:49:04.492Z,1036
2019-04-07T06:50:06.427Z,1032
2019-04-07T06:51:08.472Z,1028
2019-04-07T06:52:10.466Z,1032
2019-04-07T06:53:17.010Z,1036
2019-04-07T06:54:13.400Z,1044
2019-04-07T06:55:14.719Z,1052
2019-04-07T06:56:16.581Z,1056
2019-04-07T06:57:18.495Z,1068
2019-04-07T06:58:19.820Z,1068
2019-04-07T06:59:21.954Z,1080
2019-04-07T07:00:24.473Z,1092
2019-04-07T07:01:26.537Z,1108
2019-04-07T07:02:29.523Z,1124
2019-04-07T07:03:29.371Z,1128
2019-04-07T07:04:31.214Z,1148
2019-04-07T07:05:34.998Z,1160
2019-04-07T07:06:35.059Z,1172
2019-04-07T07:07:36.932Z,1180
2019-04-07T07:08:45.040Z,1192
2019-04-07T07:09:40.450Z,1196
2019-04-07T07:10:42.891Z,1212
2019-04-07T07:11:44.488Z,1220
2019-04-07T07:12:46.107Z,1232
2019-04-07T07:13:47.716Z,1240
2019-04-07T07:14:49.597Z,1248
2019-04-07T07:15:50.914Z,1252
2019-04-07T07:16:52.739Z,1256
2019-04-07T07:17:56.177Z,1256
2019-04-07T07:18:56.813Z,1256
2019-04-07T07:20:01.123Z,1252
2019-04-07T07:21:01.805Z,1252
2019-04-07T07:22:01.221Z,1260
2019-04-07T07:23:03.806Z,1264
2019-04-07T07:24:04.910Z,1276
2019-04-07T07:25:06.432Z,1284
2019-04-07T07:26:08.174Z,1292
2019-04-07T07:27:11.094Z,1300
2019-04-07T07:28:12.533Z,1308
2019-04-07T07:29:14.660Z,1320
2019-04-07T07:30:17.515Z,1324
2019-04-07T07:31:16.692Z,1332
2019-04-07T07:32:18.315Z,1336
2019-04-07T07:33:20.225Z,1400
2019-04-07T07:34:22.156Z,1408
2019-04-07T07:35:23.579Z,1412
2019-04-07T07:36:25.189Z,1420
2019-04-07T07:37:26.994Z,1420
2019-04-07T07:38:31.086Z,1196
2019-04-07T07:39:30.546Z,1428
2019-04-07T07:40:34.086Z,1436
2019-04-07T07:41:34.473Z,1440
2019-04-07T07:42:35.539Z,1444
2019-04-07T07:43:38.225Z,1444
2019-04-07T07:44:39.960Z,1448
2019-04-07T07:45:44.815Z,1472
2019-04-07T07:46:44.316Z,1476
2019-04-07T07:47:46.425Z,1484
2019-04-07T07:48:49.979Z,1416
2019-04-07T07:49:50.852Z,1432
2019-04-07T07:50:52.161Z,1440
2019-04-07T07:51:53.796Z,1448
2019-04-07T07:52:56.098Z,1460
2019-04-07T07:53:58.712Z,1464
2019-04-07T07:55:00.895Z,1472
2019-04-07T07:56:00.885Z,1484
2019-04-07T07:57:02.392Z,1496
2019-04-07T07:58:03.995Z,1504
2019-04-07T07:59:06.086Z,1512
2019-04-07T08:00:07.075Z,1524
2019-04-07T08:01:11.823Z,1544
2019-04-07T08:02:14.661Z,1548
2019-04-07T08:03:14.647Z,1568
2019-04-07T08:04:16.319Z,1588
2019-04-07T08:05:18.178Z,1596
2019-04-07T08:06:19.480Z,1612
2019-04-07T08:07:21.172Z,1628
2019-04-07T08:08:23.430Z,1576
2019-04-07T08:09:26.017Z,1600
2019-04-07T08:10:27.641Z,1616
2019-04-07T08:11:32.918Z,1636
2019-04-07T08:12:32.380Z,1648
2019-04-07T08:13:33.279Z,1660
2019-04-07T08:14:35.998Z,1672
2019-04-07T08:15:37.638Z,1688
2019-04-07T08:16:39.981Z,1704
2019-04-07T08:17:42.069Z,1728
2019-04-07T08:18:45.178Z,1760
2019-04-07T08:19:46.606Z,1776
2019-04-07T08:20:47.959Z,1800
2019-04-07T08:21:51.254Z,1828
2019-04-07T08:22:51.798Z,1860
2019-04-07T08:23:53.564Z,1904
2019-04-07T08:24:55.668Z,1936
2019-04-07T08:25:57.969Z,1972
2019-04-07T08:27:00.111Z,2008
2019-04-07T08:28:03.608Z,2052
2019-04-07T08:29:05.725Z,2092
2019-04-07T08:30:07.102Z,2128
2019-04-07T08:31:07.081Z,2148
2019-04-07T08:32:09.015Z,2172
2019-04-07T08:33:10.868Z,2196
2019-04-07T08:34:13.095Z,2220
2019-04-07T08:35:15.365Z,2240
2019-04-07T08:36:17.208Z,2256
2019-04-07T08:37:19.014Z,2276
2019-04-07T08:38:24.766Z,2288
2019-04-07T08:39:25.590Z,2300
2019-04-07T08:40:25.259Z,2308
2019-04-07T08:41:26.653Z,2320
2019-04-07T08:42:29.058Z,2328
2019-04-07T08:43:31.911Z,2344
2019-04-07T08:44:32.803Z,2352
2019-04-07T08:45:35.023Z,2368
2019-04-07T08:46:40.932Z,2380
2019-04-07T08:47:39.167Z,2392
2019-04-07T08:48:40.302Z,2416
2019-04-07T08:49:42.623Z,2428
2019-04-07T08:50:43.954Z,2436
2019-04-07T08:51:45.948Z,2464
2019-04-07T08:52:48.170Z,2484
2019-04-07T08:53:50.078Z,2504
2019-04-07T08:54:52.683Z,2508
2019-04-07T08:55:54.669Z,2524
2019-04-07T08:56:56.786Z,2520
2019-04-07T08:58:00.107Z,2524
2019-04-07T08:58:59.895Z,2548
2019-04-07T09:00:01.798Z,2568
2019-04-07T09:01:03.700Z,2584
2019-04-07T09:02:07.509Z,2592
2019-04-07T09:03:12.245Z,2612
2019-04-07T09:04:11.011Z,2616
2019-04-07T09:05:12.928Z,2612
2019-04-07T09:06:14.480Z,2632
2019-04-07T09:07:16.467Z,2636
2019-04-07T09:08:18.185Z,2644
2019-04-07T09:09:32.087Z,2668
2019-04-07T09:10:22.396Z,2696
2019-04-07T09:11:24.354Z,2692
2019-04-07T09:12:28.947Z,2704
2019-04-07T09:13:31.428Z,2724
2019-04-07T09:14:30.038Z,2736
2019-04-07T09:15:32.850Z,2756
2019-04-07T09:16:34.340Z,2752
2019-04-07T09:17:41.038Z,2788
2019-04-07T09:18:38.916Z,2864
2019-04-07T09:19:40.347Z,2980
2019-04-07T09:20:44.302Z,3024
2019-04-07T09:21:47.585Z,3036
2019-04-07T09:22:46.399Z,3004
2019-04-07T09:23:48.970Z,3056
2019-04-07T09:24:50.803Z,3056
2019-04-07T09:25:52.033Z,3028
2019-04-07T09:26:54.462Z,3060
2019-04-07T09:27:57.206Z,3052
2019-04-07T09:28:59.233Z,3056
2019-04-07T09:30:01.094Z,3080
2019-04-07T09:31:03.337Z,3136
2019-04-07T09:32:04.363Z,3152
2019-04-07T09:33:06.050Z,3208
2019-04-07T09:34:08.079Z,3228
2019-04-07T09:35:09.601Z,3256
2019-04-07T09:36:11.379Z,3256
2019-04-07T09:37:13.274Z,3304
2019-04-07T09:38:16.411Z,3356
2019-04-07T09:39:17.666Z,3312
2019-04-07T09:40:19.171Z,3328
2019-04-07T09:41:23.147Z,3296
2019-04-07T09:42:24.344Z,3220
2019-04-07T09:43:25.061Z,3244
2019-04-07T09:44:27.818Z,3256
2019-04-07T09:45:29.795Z,3208
2019-04-07T09:46:32.211Z,3240
2019-04-07T09:47:34.704Z,3264
2019-04-07T09:48:38.253Z,3284
2019-04-07T09:49:37.896Z,3540
2019-04-07T09:50:39.673Z,3804
2019-04-07T09:51:41.642Z,4024
2019-04-07T09:52:45.063Z,4132
2019-04-07T09:53:48.565Z,3372
2019-04-07T09:54:47.351Z,3816
2019-04-07T09:55:48.981Z,3512
2019-04-07T09:56:50.816Z,3372
2019-04-07T09:57:52.718Z,3384
2019-04-07T09:58:54.594Z,3376
2019-04-07T09:59:56.453Z,3408
2019-04-07T10:00:58.445Z,3332
2019-04-07T10:02:01.028Z,3388
2019-04-07T10:03:04.939Z,3388
2019-04-07T10:04:02.802Z,3368
2019-04-07T10:05:05.021Z,3340
2019-04-07T10:06:09.823Z,3284
2019-04-07T10:07:09.637Z,3288
2019-04-07T10:08:12.102Z,3308
2019-04-07T10:09:11.807Z,3324
2019-04-07T10:10:14.758Z,3300
2019-04-07T10:11:15.992Z,3316
2019-04-07T10:12:16.803Z,3352
2019-04-07T10:13:18.876Z,3364
2019-04-07T10:14:20.644Z,3368
2019-04-07T10:15:22.383Z,3376
2019-04-07T10:16:23.799Z,3396
2019-04-07T10:17:26.154Z,3380
2019-04-07T10:18:27.239Z,3368
2019-04-07T10:19:29.964Z,3404
2019-04-07T10:20:31.430Z,3432
2019-04-07T10:21:32.414Z,3456
2019-04-07T10:22:34.140Z,3484
2019-04-07T10:23:36.426Z,3476
2019-04-07T10:24:38.042Z,3480
2019-04-07T10:25:40.307Z,3504
2019-04-07T10:26:41.902Z,3516
2019-04-07T10:27:44.037Z,3532
2019-04-07T10:28:45.411Z,3556
2019-04-07T10:29:46.876Z,3600
2019-04-07T10:30:48.878Z,3608
2019-04-07T10:31:50.504Z,3600
2019-04-07T10:32:52.335Z,3628
2019-04-07T10:33:54.113Z,3624
2019-04-07T10:34:56.496Z,3636
2019-04-07T10:35:57.986Z,3644
2019-04-07T10:37:02.584Z,3652
2019-04-07T10:38:01.872Z,3668
2019-04-07T10:39:03.116Z,3700
2019-04-07T10:40:11.933Z,3716
2019-04-07T10:41:06.791Z,3704
2019-04-07T10:42:08.671Z,3760
2019-04-07T10:43:09.689Z,3776
2019-04-07T10:44:11.367Z,3764
2019-04-07T10:45:13.060Z,3784
2019-04-07T10:46:15.752Z,3812
2019-04-07T10:47:17.155Z,3820
2019-04-07T10:48:19.058Z,3832
2019-04-07T10:49:21.358Z,3856
2019-04-07T10:50:22.252Z,3884
2019-04-07T10:51:24.210Z,3896
2019-04-07T10:52:26.045Z,3940
2019-04-07T10:53:30.284Z,3956
2019-04-07T10:54:29.262Z,3956
2019-04-07T10:55:31.049Z,3992
2019-04-07T10:56:32.784Z,4032
2019-04-07T10:57:35.322Z,4048
2019-04-07T10:58:36.841Z,4064
2019-04-07T10:59:38.992Z,4096
2019-04-07T11:00:44.018Z,4116
2019-04-07T11:01:41.402Z,4124
2019-04-07T11:02:44.201Z,4124
2019-04-07T11:03:45.358Z,4084
2019-04-07T11:04:47.372Z,4104
2019-04-07T11:05:48.275Z,4192
2019-04-07T11:06:50.180Z,4188
2019-04-07T11:07:51.684Z,4244
2019-04-07T11:08:53.474Z,4276
2019-04-07T11:09:55.099Z,4288
2019-04-07T11:10:56.864Z,4352
2019-04-07T11:11:58.881Z,4372
2019-04-07T11:13:00.635Z,4356
2019-04-07T11:14:02.371Z,4388
2019-04-07T11:15:04.660Z,4416
2019-04-07T11:16:06.336Z,4472
2019-04-07T11:17:08.107Z,4436
2019-04-07T11:18:09.731Z,4496
2019-04-07T11:19:12.842Z,4512
2019-04-07T11:20:13.380Z,4536
2019-04-07T11:21:15.690Z,4576
2019-04-07T11:22:17.705Z,4644
2019-04-07T11:23:19.511Z,4708
2019-04-07T11:24:22.039Z,4688
2019-04-07T11:25:23.215Z,4648
2019-04-07T11:26:25.253Z,4720
2019-04-07T11:27:26.727Z,4696
2019-04-07T11:28:29.018Z,4700
2019-04-07T11:29:31.434Z,4748
2019-04-07T11:30:34.328Z,4820
2019-04-07T11:31:36.895Z,4824
2019-04-07T11:32:41.440Z,4832
2019-04-07T11:33:42.509Z,4856
2019-04-07T11:34:45.426Z,4920
2019-04-07T11:35:47.597Z,5040
2019-04-07T11:36:49.853Z,5080
2019-04-07T11:37:51.719Z,5044
2019-04-07T11:38:53.382Z,5092
2019-04-07T11:39:55.173Z,5136
2019-04-07T11:40:57.815Z,5112
2019-04-07T11:42:01.089Z,5096
2019-04-07T11:43:04.287Z,5072
2019-04-07T11:44:05.345Z,5108
2019-04-07T11:45:11.331Z,5128
2019-04-07T11:46:13.995Z,5184
2019-04-07T11:47:15.362Z,5192
2019-04-07T11:48:17.589Z,5140
2019-04-07T11:49:19.511Z,5136
2019-04-07T11:50:22.234Z,5144
2019-04-07T11:51:24.259Z,5244
2019-04-07T11:52:25.113Z,5300
2019-04-07T11:53:27.494Z,5248
2019-04-07T11:54:32.657Z,5320
2019-04-07T11:55:33.642Z,5348
2019-04-07T11:56:36.025Z,5392
2019-04-07T11:57:41.153Z,5424
2019-04-07T11:58:39.854Z,5444
2019-04-07T11:59:41.636Z,5448
2019-04-07T12:00:43.661Z,5456
2019-04-07T12:01:47.505Z,5512
2019-04-07T12:02:49.234Z,5608
2019-04-07T12:03:53.899Z,5672
2019-04-07T12:04:55.351Z,5740
2019-04-07T12:05:57.110Z,5740
2019-04-07T12:06:58.874Z,5824
2019-04-07T12:08:01.644Z,5876
2019-04-07T12:09:03.311Z,5908
2019-04-07T12:10:05.140Z,5920
2019-04-07T12:11:07.026Z,5932
2019-04-07T12:12:09.257Z,5912
2019-04-07T12:13:12.383Z,5872
2019-04-07T12:14:16.290Z,5880
2019-04-07T12:15:16.267Z,5800
2019-04-07T12:16:18.526Z,5784
2019-04-07T12:17:20.920Z,5832
2019-04-07T12:18:22.349Z,5848
2019-04-07T12:19:25.842Z,5900
2019-04-07T12:20:29.551Z,5940
2019-04-07T12:21:29.792Z,5844
2019-04-07T12:22:33.804Z,5864
2019-04-07T12:23:35.556Z,5928
2019-04-07T12:24:38.017Z,6012
2019-04-07T12:25:40.233Z,6084
2019-04-07T12:26:43.628Z,5980
2019-04-07T12:27:45.194Z,6016
2019-04-07T12:28:47.555Z,6108
2019-04-07T12:29:48.915Z,6208
2019-04-07T12:30:51.264Z,6164
2019-04-07T12:31:53.523Z,5548
2019-04-07T12:32:55.275Z,6336
2019-04-07T12:33:57.423Z,5552
2019-04-07T12:34:59.842Z,6272
2019-04-07T12:36:03.212Z,5452
2019-04-07T12:37:06.529Z,6164
2019-04-07T12:38:10.808Z,6196
2019-04-07T12:39:09.372Z,6168
2019-04-07T12:40:10.913Z,6188
2019-04-07T12:41:18.358Z,6196
2019-04-07T12:42:15.624Z,6256
2019-04-07T12:43:17.390Z,6292
2019-04-07T12:44:19.047Z,6340
2019-04-07T12:45:22.357Z,11936
2019-04-07T12:46:24.557Z,9588
2019-04-07T12:47:26.692Z,6260
2019-04-07T12:48:30.062Z,6304
2019-04-07T12:49:32.880Z,6272
2019-04-07T12:50:32.813Z,6396
2019-04-07T12:51:33.985Z,6508
2019-04-07T12:52:37.659Z,6560
2019-04-07T12:53:38.981Z,6580
2019-04-07T12:54:43.687Z,6472
2019-04-07T12:55:46.931Z,6356
2019-04-07T12:56:46.747Z,6368
2019-04-07T12:57:48.666Z,6432
2019-04-07T12:58:50.880Z,6548
2019-04-07T12:59:52.966Z,6676
2019-04-07T13:00:59.432Z,6760
2019-04-07T13:01:57.706Z,7128
2019-04-07T13:02:59.753Z,11332
2019-04-07T13:04:03.582Z,19040
2019-04-07T13:05:06.394Z,11320
2019-04-07T13:06:09.468Z,25408
2019-04-07T13:07:14.219Z,9896
2019-04-07T13:08:12.886Z,7744
2019-04-07T13:09:14.991Z,7868
2019-04-07T13:10:17.099Z,8044
2019-04-07T13:11:26.526Z,7856
2019-04-07T13:12:24.748Z,8292
2019-04-07T13:13:29.568Z,7728
2019-04-07T13:14:29.379Z,7128
2019-04-07T13:15:32.169Z,6884
2019-04-07T13:16:33.836Z,8652
2019-04-07T13:17:37.824Z,9160
2019-04-07T13:18:39.123Z,7788
2019-04-07T13:19:43.811Z,8516
2019-04-07T13:20:44.120Z,24576
2019-04-07T13:21:46.687Z,45888
2019-04-07T13:22:48.641Z,33952
2019-04-07T13:23:50.350Z,12724
2019-04-07T13:24:51.641Z,8288
2019-04-07T13:25:55.381Z,11640
2019-04-07T13:26:57.243Z,11088
2019-04-07T13:27:58.828Z,7392
2019-04-07T13:29:02.842Z,7312
2019-04-07T13:30:05.751Z,7224
2019-04-07T13:31:06.857Z,7272
2019-04-07T13:32:09.041Z,7392
2019-04-07T13:33:12.580Z,7396
2019-04-07T13:34:14.642Z,7600
2019-04-07T13:35:17.124Z,7760
2019-04-07T13:36:19.272Z,7804
2019-04-07T13:37:21.634Z,7804
2019-04-07T13:38:23.957Z,7800
2019-04-07T13:39:26.004Z,7816
2019-04-07T13:40:27.420Z,7992
2019-04-07T13:41:38.691Z,8016
2019-04-07T13:42:33.963Z,8120
2019-04-07T13:43:36.312Z,8704
2019-04-07T13:44:39.672Z,8732
2019-04-07T13:45:42.001Z,8864
2019-04-07T13:46:42.339Z,9296
2019-04-07T13:47:44.734Z,9828
2019-04-07T13:48:49.661Z,15456
2019-04-07T13:49:47.930Z,42240
2019-04-07T13:50:52.605Z,55328
2019-04-07T20:27:51.236Z,0
2019-04-07T20:28:52.172Z,0
2019-04-07T20:29:54.037Z,0
2019-04-07T20:30:55.716Z,0
2019-04-07T20:31:56.734Z,0
2019-04-07T20:32:59.537Z,0
2019-04-07T20:34:03.244Z,0
2019-04-07T20:35:01.420Z,0
2019-04-07T20:36:02.929Z,0
2019-04-07T20:37:05.084Z,0
2019-04-07T20:38:06.275Z,0
2019-04-07T20:39:07.466Z,0
2019-04-07T20:40:09.007Z,0
2019-04-07T20:41:12.021Z,0
2019-04-07T20:42:15.898Z,0
2019-04-07T20:43:14.310Z,0
2019-04-07T20:44:15.053Z,0
2019-04-07T20:45:19.932Z,0
2019-04-07T20:46:21.560Z,0
2019-04-07T20:47:19.746Z,0
2019-04-07T20:48:21.424Z,0
2019-04-07T20:49:22.795Z,0
2019-04-07T20:50:24.341Z,0
2019-04-07T20:51:25.859Z,0
2019-04-07T20:52:27.424Z,0
2019-04-07T20:53:31.090Z,0
2019-04-07T20:54:33.698Z,0